sensor_id;sensor_type;location;lat;lon;timestamp;P1;durP1;ratioP1;P2;durP2;ratioP2
37349;SDS011;23231;52.358;4.926;2023-10-08T00:01:09;23.35;;;7.93;;
37349;SDS011;23231;52.358;4.926;2023-10-08T00:06:42;23.58;;;8.15;;
37349;SDS011;23231;52.358;4.926;2023-10-08T00:12:03;30.95;;;7.65;;
37349;SDS011;23231;52.358;4.926;2023-10-08T00:17:23;25.42;;;7.50;;
37349;SDS011;23231;52.358;4.926;2023-10-08T00:22:31;18.48;;;6.75;;
37349;SDS011;23231;52.358;4.926;2023-10-08T00:27:53;18.80;;;7.40;;
37349;SDS011;23231;52.358;4.926;2023-10-08T00:32:57;18.27;;;7.05;;
37349;SDS011;23231;52.358;4.926;2023-10-08T00:43:33;18.23;;;6.88;;
37349;SDS011;23231;52.358;4.926;2023-10-08T00:48:48;19.02;;;7.57;;
37349;SDS011;23231;52.358;4.926;2023-10-08T00:53:57;20.30;;;7.47;;
37349;SDS011;23231;52.358;4.926;2023-10-08T00:59:08;18.02;;;7.38;;
37349;SDS011;23231;52.358;4.926;2023-10-08T01:04:26;17.05;;;7.18;;
37349;SDS011;23231;52.358;4.926;2023-10-08T01:09:38;18.30;;;7.72;;
37349;SDS011;23231;52.358;4.926;2023-10-08T01:14:53;19.70;;;7.53;;
37349;SDS011;23231;52.358;4.926;2023-10-08T01:20:27;19.75;;;7.95;;
37349;SDS011;23231;52.358;4.926;2023-10-08T01:25:52;28.05;;;8.98;;
37349;SDS011;23231;52.358;4.926;2023-10-08T01:31:14;26.95;;;8.82;;
37349;SDS011;23231;52.358;4.926;2023-10-08T01:36:26;19.58;;;7.80;;
37349;SDS011;23231;52.358;4.926;2023-10-08T01:41:32;23.58;;;8.70;;
37349;SDS011;23231;52.358;4.926;2023-10-08T01:46:40;20.60;;;8.30;;
37349;SDS011;23231;52.358;4.926;2023-10-08T01:51:49;23.48;;;8.77;;
37349;SDS011;23231;52.358;4.926;2023-10-08T01:57:05;22.20;;;7.57;;
37349;SDS011;23231;52.358;4.926;2023-10-08T02:02:19;18.88;;;7.10;;
37349;SDS011;23231;52.358;4.926;2023-10-08T02:07:22;20.70;;;7.97;;
37349;SDS011;23231;52.358;4.926;2023-10-08T02:12:34;26.65;;;9.07;;
37349;SDS011;23231;52.358;4.926;2023-10-08T02:17:46;19.73;;;7.65;;
37349;SDS011;23231;52.358;4.926;2023-10-08T02:22:56;28.38;;;8.43;;
37349;SDS011;23231;52.358;4.926;2023-10-08T02:28:14;21.38;;;7.60;;
37349;SDS011;23231;52.358;4.926;2023-10-08T02:33:27;23.88;;;8.35;;
37349;SDS011;23231;52.358;4.926;2023-10-08T02:38:36;23.20;;;7.50;;
37349;SDS011;23231;52.358;4.926;2023-10-08T02:43:52;28.60;;;8.50;;
37349;SDS011;23231;52.358;4.926;2023-10-08T02:49:19;11.82;;;4.15;;
37349;SDS011;23231;52.358;4.926;2023-10-08T02:54:30;13.05;;;3.20;;
37349;SDS011;23231;52.358;4.926;2023-10-08T02:59:48;7.07;;;2.47;;
37349;SDS011;23231;52.358;4.926;2023-10-08T03:04:55;10.05;;;2.65;;
37349;SDS011;23231;52.358;4.926;2023-10-08T03:10:26;8.80;;;3.08;;
37349;SDS011;23231;52.358;4.926;2023-10-08T03:15:35;12.35;;;3.33;;
37349;SDS011;23231;52.358;4.926;2023-10-08T03:21:12;9.00;;;2.70;;
37349;SDS011;23231;52.358;4.926;2023-10-08T03:26:24;10.82;;;1.90;;
37349;SDS011;23231;52.358;4.926;2023-10-08T03:31:34;5.78;;;1.70;;
37349;SDS011;23231;52.358;4.926;2023-10-08T03:37:00;7.15;;;1.73;;
37349;SDS011;23231;52.358;4.926;2023-10-08T03:42:08;9.15;;;1.80;;
37349;SDS011;23231;52.358;4.926;2023-10-08T03:47:23;9.65;;;1.80;;
37349;SDS011;23231;52.358;4.926;2023-10-08T03:52:28;6.82;;;1.10;;
37349;SDS011;23231;52.358;4.926;2023-10-08T03:57:30;5.63;;;1.40;;
37349;SDS011;23231;52.358;4.926;2023-10-08T04:02:55;5.10;;;1.67;;
37349;SDS011;23231;52.358;4.926;2023-10-08T04:08:14;5.63;;;1.80;;
37349;SDS011;23231;52.358;4.926;2023-10-08T04:13:47;6.60;;;2.80;;
37349;SDS011;23231;52.358;4.926;2023-10-08T04:18:48;5.78;;;3.03;;
37349;SDS011;23231;52.358;4.926;2023-10-08T04:23:53;10.73;;;3.95;;
37349;SDS011;23231;52.358;4.926;2023-10-08T04:28:59;9.70;;;3.55;;
37349;SDS011;23231;52.358;4.926;2023-10-08T04:34:19;8.48;;;3.75;;
37349;SDS011;23231;52.358;4.926;2023-10-08T04:39:36;8.43;;;4.22;;
37349;SDS011;23231;52.358;4.926;2023-10-08T04:44:48;6.87;;;3.03;;
37349;SDS011;23231;52.358;4.926;2023-10-08T04:49:54;9.65;;;3.80;;
37349;SDS011;23231;52.358;4.926;2023-10-08T04:54:57;9.90;;;4.90;;
37349;SDS011;23231;52.358;4.926;2023-10-08T05:00:05;15.70;;;5.20;;
37349;SDS011;23231;52.358;4.926;2023-10-08T05:05:15;9.55;;;3.25;;
37349;SDS011;23231;52.358;4.926;2023-10-08T05:10:23;10.63;;;3.40;;
37349;SDS011;23231;52.358;4.926;2023-10-08T05:15:24;10.65;;;2.65;;
37349;SDS011;23231;52.358;4.926;2023-10-08T05:20:38;6.63;;;2.22;;
37349;SDS011;23231;52.358;4.926;2023-10-08T05:25:50;5.45;;;1.75;;
37349;SDS011;23231;52.358;4.926;2023-10-08T05:31:18;5.53;;;2.50;;
37349;SDS011;23231;52.358;4.926;2023-10-08T05:36:43;4.65;;;1.67;;
37349;SDS011;23231;52.358;4.926;2023-10-08T05:42:14;4.78;;;1.85;;
37349;SDS011;23231;52.358;4.926;2023-10-08T05:47:23;7.25;;;2.38;;
37349;SDS011;23231;52.358;4.926;2023-10-08T05:52:52;5.25;;;2.80;;
37349;SDS011;23231;52.358;4.926;2023-10-08T05:58:25;6.03;;;2.40;;
37349;SDS011;23231;52.358;4.926;2023-10-08T06:03:51;5.07;;;1.80;;
37349;SDS011;23231;52.358;4.926;2023-10-08T06:09:21;5.47;;;2.10;;
37349;SDS011;23231;52.358;4.926;2023-10-08T06:20:07;4.60;;;1.08;;
37349;SDS011;23231;52.358;4.926;2023-10-08T06:25:28;2.47;;;0.98;;
37349;SDS011;23231;52.358;4.926;2023-10-08T06:30:32;4.00;;;0.98;;
37349;SDS011;23231;52.358;4.926;2023-10-08T06:35:43;4.55;;;1.88;;
37349;SDS011;23231;52.358;4.926;2023-10-08T06:41:02;2.22;;;0.80;;
37349;SDS011;23231;52.358;4.926;2023-10-08T06:46:12;3.22;;;0.93;;
37349;SDS011;23231;52.358;4.926;2023-10-08T06:51:22;4.00;;;1.45;;
37349;SDS011;23231;52.358;4.926;2023-10-08T06:56:29;2.80;;;0.90;;
37349;SDS011;23231;52.358;4.926;2023-10-08T07:01:33;2.47;;;1.02;;
37349;SDS011;23231;52.358;4.926;2023-10-08T07:06:39;4.53;;;1.20;;
37349;SDS011;23231;52.358;4.926;2023-10-08T07:11:46;2.25;;;0.88;;
37349;SDS011;23231;52.358;4.926;2023-10-08T07:16:49;4.18;;;1.00;;
37349;SDS011;23231;52.358;4.926;2023-10-08T07:21:59;5.80;;;1.23;;
37349;SDS011;23231;52.358;4.926;2023-10-08T07:27:19;4.22;;;1.00;;
37349;SDS011;23231;52.358;4.926;2023-10-08T07:32:30;4.32;;;1.00;;
37349;SDS011;23231;52.358;4.926;2023-10-08T07:37:34;3.83;;;0.88;;
37349;SDS011;23231;52.358;4.926;2023-10-08T07:42:36;3.25;;;0.93;;
37349;SDS011;23231;52.358;4.926;2023-10-08T07:47:37;1.85;;;0.73;;
37349;SDS011;23231;52.358;4.926;2023-10-08T07:52:38;2.70;;;0.90;;
37349;SDS011;23231;52.358;4.926;2023-10-08T07:57:45;3.08;;;1.30;;
37349;SDS011;23231;52.358;4.926;2023-10-08T08:02:56;2.90;;;1.33;;
37349;SDS011;23231;52.358;4.926;2023-10-08T08:07:57;3.55;;;1.48;;
37349;SDS011;23231;52.358;4.926;2023-10-08T08:13:05;3.65;;;1.10;;
37349;SDS011;23231;52.358;4.926;2023-10-08T08:18:10;4.43;;;1.50;;
37349;SDS011;23231;52.358;4.926;2023-10-08T08:23:22;3.88;;;1.35;;
37349;SDS011;23231;52.358;4.926;2023-10-08T08:28:27;2.25;;;0.98;;
37349;SDS011;23231;52.358;4.926;2023-10-08T08:33:29;5.23;;;1.50;;
37349;SDS011;23231;52.358;4.926;2023-10-08T08:38:46;2.70;;;1.20;;
37349;SDS011;23231;52.358;4.926;2023-10-08T08:43:48;5.68;;;1.10;;
37349;SDS011;23231;52.358;4.926;2023-10-08T08:49:01;4.00;;;1.30;;
37349;SDS011;23231;52.358;4.926;2023-10-08T08:54:05;3.17;;;0.85;;
37349;SDS011;23231;52.358;4.926;2023-10-08T08:59:13;4.35;;;1.60;;
37349;SDS011;23231;52.358;4.926;2023-10-08T09:04:18;3.50;;;1.10;;
37349;SDS011;23231;52.358;4.926;2023-10-08T09:09:32;2.88;;;0.90;;
37349;SDS011;23231;52.358;4.926;2023-10-08T09:14:34;4.05;;;1.50;;
37349;SDS011;23231;52.358;4.926;2023-10-08T09:19:38;3.42;;;1.17;;
37349;SDS011;23231;52.358;4.926;2023-10-08T09:24:45;5.75;;;1.70;;
37349;SDS011;23231;52.358;4.926;2023-10-08T09:29:50;2.90;;;0.70;;
37349;SDS011;23231;52.358;4.926;2023-10-08T09:34:52;6.10;;;2.10;;
37349;SDS011;23231;52.358;4.926;2023-10-08T09:39:52;9.05;;;2.47;;
37349;SDS011;23231;52.358;4.926;2023-10-08T09:44:54;4.55;;;1.40;;
37349;SDS011;23231;52.358;4.926;2023-10-08T09:49:56;5.38;;;1.98;;
37349;SDS011;23231;52.358;4.926;2023-10-08T09:55:08;2.72;;;0.70;;
37349;SDS011;23231;52.358;4.926;2023-10-08T10:00:12;5.93;;;1.30;;
37349;SDS011;23231;52.358;4.926;2023-10-08T10:05:21;3.97;;;1.25;;
37349;SDS011;23231;52.358;4.926;2023-10-08T10:10:25;4.53;;;1.05;;
37349;SDS011;23231;52.358;4.926;2023-10-08T10:15:26;5.07;;;1.30;;
37349;SDS011;23231;52.358;4.926;2023-10-08T10:20:31;4.07;;;1.15;;
37349;SDS011;23231;52.358;4.926;2023-10-08T10:25:34;3.72;;;1.13;;
37349;SDS011;23231;52.358;4.926;2023-10-08T10:35:39;4.38;;;1.25;;
37349;SDS011;23231;52.358;4.926;2023-10-08T10:40:42;6.43;;;1.40;;
37349;SDS011;23231;52.358;4.926;2023-10-08T10:45:44;3.28;;;1.00;;
37349;SDS011;23231;52.358;4.926;2023-10-08T10:50:47;4.35;;;1.10;;
37349;SDS011;23231;52.358;4.926;2023-10-08T10:56:08;5.60;;;1.15;;
37349;SDS011;23231;52.358;4.926;2023-10-08T11:01:11;3.03;;;1.02;;
37349;SDS011;23231;52.358;4.926;2023-10-08T11:06:23;3.20;;;1.33;;
37349;SDS011;23231;52.358;4.926;2023-10-08T11:11:25;3.33;;;1.20;;
37349;SDS011;23231;52.358;4.926;2023-10-08T11:16:29;3.30;;;1.40;;
37349;SDS011;23231;52.358;4.926;2023-10-08T11:21:33;5.93;;;1.73;;
37349;SDS011;23231;52.358;4.926;2023-10-08T11:26:36;5.80;;;1.48;;
37349;SDS011;23231;52.358;4.926;2023-10-08T11:31:40;4.78;;;1.40;;
37349;SDS011;23231;52.358;4.926;2023-10-08T11:36:40;5.88;;;1.75;;
37349;SDS011;23231;52.358;4.926;2023-10-08T11:41:59;3.38;;;1.33;;
37349;SDS011;23231;52.358;4.926;2023-10-08T11:47:06;3.92;;;1.35;;
37349;SDS011;23231;52.358;4.926;2023-10-08T11:52:12;5.57;;;1.60;;
37349;SDS011;23231;52.358;4.926;2023-10-08T11:57:15;5.50;;;1.60;;
37349;SDS011;23231;52.358;4.926;2023-10-08T12:02:21;5.85;;;1.67;;
37349;SDS011;23231;52.358;4.926;2023-10-08T12:07:22;5.35;;;1.50;;
37349;SDS011;23231;52.358;4.926;2023-10-08T12:12:28;5.65;;;1.50;;
37349;SDS011;23231;52.358;4.926;2023-10-08T12:17:32;6.22;;;1.90;;
37349;SDS011;23231;52.358;4.926;2023-10-08T12:22:39;3.13;;;1.25;;
37349;SDS011;23231;52.358;4.926;2023-10-08T12:27:39;5.30;;;1.60;;
37349;SDS011;23231;52.358;4.926;2023-10-08T12:32:40;4.20;;;1.80;;
37349;SDS011;23231;52.358;4.926;2023-10-08T12:37:42;5.57;;;1.73;;
37349;SDS011;23231;52.358;4.926;2023-10-08T12:42:45;6.72;;;1.92;;
37349;SDS011;23231;52.358;4.926;2023-10-08T12:47:51;5.80;;;2.33;;
37349;SDS011;23231;52.358;4.926;2023-10-08T12:52:52;4.60;;;1.80;;
37349;SDS011;23231;52.358;4.926;2023-10-08T12:57:55;5.38;;;1.80;;
37349;SDS011;23231;52.358;4.926;2023-10-08T13:02:55;7.50;;;2.60;;
37349;SDS011;23231;52.358;4.926;2023-10-08T13:07:57;6.28;;;2.35;;
37349;SDS011;23231;52.358;4.926;2023-10-08T13:13:03;5.85;;;2.83;;
37349;SDS011;23231;52.358;4.926;2023-10-08T13:18:05;4.32;;;2.40;;
37349;SDS011;23231;52.358;4.926;2023-10-08T13:23:05;7.60;;;2.90;;
37349;SDS011;23231;52.358;4.926;2023-10-08T13:28:07;4.22;;;2.70;;
37349;SDS011;23231;52.358;4.926;2023-10-08T13:38:22;7.03;;;3.50;;
37349;SDS011;23231;52.358;4.926;2023-10-08T13:43:24;5.68;;;3.13;;
37349;SDS011;23231;52.358;4.926;2023-10-08T13:48:34;6.82;;;3.35;;
37349;SDS011;23231;52.358;4.926;2023-10-08T13:53:41;6.28;;;3.75;;
37349;SDS011;23231;52.358;4.926;2023-10-08T13:58:45;6.20;;;3.42;;
37349;SDS011;23231;52.358;4.926;2023-10-08T14:03:52;8.73;;;4.43;;
37349;SDS011;23231;52.358;4.926;2023-10-08T14:09:05;7.00;;;3.70;;
37349;SDS011;23231;52.358;4.926;2023-10-08T14:14:13;7.35;;;3.72;;
37349;SDS011;23231;52.358;4.926;2023-10-08T14:19:17;6.95;;;3.67;;
37349;SDS011;23231;52.358;4.926;2023-10-08T14:24:28;10.15;;;5.15;;
37349;SDS011;23231;52.358;4.926;2023-10-08T14:29:32;7.45;;;4.53;;
37349;SDS011;23231;52.358;4.926;2023-10-08T14:34:42;12.93;;;4.72;;
37349;SDS011;23231;52.358;4.926;2023-10-08T14:39:54;7.80;;;4.00;;
37349;SDS011;23231;52.358;4.926;2023-10-08T14:45:14;9.30;;;4.38;;
37349;SDS011;23231;52.358;4.926;2023-10-08T14:50:19;8.57;;;4.57;;
37349;SDS011;23231;52.358;4.926;2023-10-08T14:55:24;8.15;;;4.80;;
37349;SDS011;23231;52.358;4.926;2023-10-08T15:00:26;8.90;;;5.40;;
37349;SDS011;23231;52.358;4.926;2023-10-08T15:05:30;11.30;;;5.40;;
37349;SDS011;23231;52.358;4.926;2023-10-08T15:10:33;9.65;;;4.03;;
37349;SDS011;23231;52.358;4.926;2023-10-08T15:15:38;7.90;;;4.50;;
37349;SDS011;23231;52.358;4.926;2023-10-08T15:20:44;6.50;;;3.60;;
37349;SDS011;23231;52.358;4.926;2023-10-08T15:26:03;9.95;;;4.50;;
37349;SDS011;23231;52.358;4.926;2023-10-08T15:31:22;10.27;;;4.38;;
37349;SDS011;23231;52.358;4.926;2023-10-08T15:36:36;7.00;;;4.10;;
37349;SDS011;23231;52.358;4.926;2023-10-08T15:41:52;8.38;;;4.10;;
37349;SDS011;23231;52.358;4.926;2023-10-08T15:47:00;10.15;;;4.40;;
37349;SDS011;23231;52.358;4.926;2023-10-08T15:52:04;8.95;;;4.78;;
37349;SDS011;23231;52.358;4.926;2023-10-08T15:57:08;8.20;;;4.25;;
37349;SDS011;23231;52.358;4.926;2023-10-08T16:02:15;9.73;;;4.88;;
37349;SDS011;23231;52.358;4.926;2023-10-08T16:07:26;11.18;;;4.18;;
37349;SDS011;23231;52.358;4.926;2023-10-08T16:12:35;10.13;;;4.00;;
37349;SDS011;23231;52.358;4.926;2023-10-08T16:17:45;8.35;;;3.65;;
37349;SDS011;23231;52.358;4.926;2023-10-08T16:22:52;8.25;;;4.05;;
37349;SDS011;23231;52.358;4.926;2023-10-08T16:27:57;6.72;;;3.58;;
37349;SDS011;23231;52.358;4.926;2023-10-08T16:33:03;10.10;;;4.22;;
37349;SDS011;23231;52.358;4.926;2023-10-08T16:38:13;9.27;;;4.00;;
37349;SDS011;23231;52.358;4.926;2023-10-08T16:43:20;7.93;;;3.08;;
37349;SDS011;23231;52.358;4.926;2023-10-08T16:48:27;7.13;;;3.10;;
37349;SDS011;23231;52.358;4.926;2023-10-08T16:53:32;9.02;;;2.90;;
37349;SDS011;23231;52.358;4.926;2023-10-08T16:58:46;7.43;;;3.28;;
37349;SDS011;23231;52.358;4.926;2023-10-08T17:03:56;8.48;;;3.47;;
37349;SDS011;23231;52.358;4.926;2023-10-08T17:09:11;7.90;;;3.08;;
37349;SDS011;23231;52.358;4.926;2023-10-08T17:14:36;7.28;;;2.90;;
37349;SDS011;23231;52.358;4.926;2023-10-08T17:19:41;8.57;;;3.17;;
37349;SDS011;23231;52.358;4.926;2023-10-08T17:24:55;6.93;;;3.33;;
37349;SDS011;23231;52.358;4.926;2023-10-08T17:30:10;7.57;;;3.28;;
37349;SDS011;23231;52.358;4.926;2023-10-08T17:35:39;7.82;;;3.03;;
37349;SDS011;23231;52.358;4.926;2023-10-08T17:40:43;7.78;;;3.08;;
37349;SDS011;23231;52.358;4.926;2023-10-08T17:45:48;6.60;;;2.65;;
37349;SDS011;23231;52.358;4.926;2023-10-08T17:51:00;7.63;;;3.45;;
37349;SDS011;23231;52.358;4.926;2023-10-08T17:56:14;9.73;;;4.28;;
37349;SDS011;23231;52.358;4.926;2023-10-08T18:01:22;9.15;;;3.78;;
37349;SDS011;23231;52.358;4.926;2023-10-08T18:06:26;8.02;;;3.97;;
37349;SDS011;23231;52.358;4.926;2023-10-08T18:11:45;10.35;;;4.57;;
37349;SDS011;23231;52.358;4.926;2023-10-08T18:16:50;8.27;;;4.30;;
37349;SDS011;23231;52.358;4.926;2023-10-08T18:21:53;9.18;;;4.80;;
37349;SDS011;23231;52.358;4.926;2023-10-08T18:27:05;8.85;;;4.82;;
37349;SDS011;23231;52.358;4.926;2023-10-08T18:32:12;11.48;;;5.57;;
37349;SDS011;23231;52.358;4.926;2023-10-08T18:37:22;11.55;;;6.25;;
37349;SDS011;23231;52.358;4.926;2023-10-08T18:42:28;12.95;;;6.47;;
37349;SDS011;23231;52.358;4.926;2023-10-08T18:47:35;15.40;;;7.18;;
37349;SDS011;23231;52.358;4.926;2023-10-08T18:52:41;11.50;;;6.45;;
37349;SDS011;23231;52.358;4.926;2023-10-08T18:57:47;11.88;;;6.50;;
37349;SDS011;23231;52.358;4.926;2023-10-08T19:02:56;13.38;;;7.85;;
37349;SDS011;23231;52.358;4.926;2023-10-08T19:08:09;13.65;;;8.10;;
37349;SDS011;23231;52.358;4.926;2023-10-08T19:13:21;14.57;;;8.60;;
37349;SDS011;23231;52.358;4.926;2023-10-08T19:18:23;15.05;;;9.05;;
37349;SDS011;23231;52.358;4.926;2023-10-08T19:23:28;17.05;;;9.40;;
37349;SDS011;23231;52.358;4.926;2023-10-08T19:28:33;16.38;;;9.23;;
37349;SDS011;23231;52.358;4.926;2023-10-08T19:33:34;17.05;;;9.10;;
37349;SDS011;23231;52.358;4.926;2023-10-08T19:38:34;20.38;;;11.20;;
37349;SDS011;23231;52.358;4.926;2023-10-08T19:43:35;21.15;;;11.23;;
37349;SDS011;23231;52.358;4.926;2023-10-08T19:48:36;19.55;;;11.15;;
37349;SDS011;23231;52.358;4.926;2023-10-08T19:53:46;21.55;;;10.98;;
37349;SDS011;23231;52.358;4.926;2023-10-08T19:59:07;22.80;;;12.02;;
37349;SDS011;23231;52.358;4.926;2023-10-08T20:04:16;19.15;;;10.13;;
37349;SDS011;23231;52.358;4.926;2023-10-08T20:09:19;19.35;;;10.75;;
37349;SDS011;23231;52.358;4.926;2023-10-08T20:14:20;22.67;;;11.63;;
37349;SDS011;23231;52.358;4.926;2023-10-08T20:19:23;21.70;;;12.18;;
37349;SDS011;23231;52.358;4.926;2023-10-08T20:24:31;20.23;;;11.82;;
37349;SDS011;23231;52.358;4.926;2023-10-08T20:29:35;23.42;;;12.70;;
37349;SDS011;23231;52.358;4.926;2023-10-08T20:34:48;26.85;;;14.52;;
37349;SDS011;23231;52.358;4.926;2023-10-08T20:39:59;30.85;;;14.25;;
37349;SDS011;23231;52.358;4.926;2023-10-08T20:45:10;30.80;;;15.15;;
37349;SDS011;23231;52.358;4.926;2023-10-08T20:50:18;29.83;;;14.85;;
37349;SDS011;23231;52.358;4.926;2023-10-08T20:55:33;32.00;;;15.75;;
37349;SDS011;23231;52.358;4.926;2023-10-08T21:05:39;39.17;;;18.83;;
37349;SDS011;23231;52.358;4.926;2023-10-08T21:10:43;41.97;;;18.65;;
37349;SDS011;23231;52.358;4.926;2023-10-08T21:16:13;39.78;;;19.35;;
37349;SDS011;23231;52.358;4.926;2023-10-08T21:21:19;36.75;;;17.42;;
37349;SDS011;23231;52.358;4.926;2023-10-08T21:26:23;40.80;;;18.67;;
37349;SDS011;23231;52.358;4.926;2023-10-08T21:31:26;41.17;;;19.70;;
37349;SDS011;23231;52.358;4.926;2023-10-08T21:36:33;46.50;;;21.23;;
37349;SDS011;23231;52.358;4.926;2023-10-08T21:41:37;39.75;;;18.85;;
37349;SDS011;23231;52.358;4.926;2023-10-08T21:46:41;44.75;;;19.45;;
37349;SDS011;23231;52.358;4.926;2023-10-08T21:51:42;38.80;;;20.05;;
37349;SDS011;23231;52.358;4.926;2023-10-08T21:56:44;43.33;;;20.35;;
37349;SDS011;23231;52.358;4.926;2023-10-08T22:01:46;37.65;;;20.75;;
37349;SDS011;23231;52.358;4.926;2023-10-08T22:06:47;43.10;;;20.95;;
37349;SDS011;23231;52.358;4.926;2023-10-08T22:11:51;46.28;;;21.50;;
37349;SDS011;23231;52.358;4.926;2023-10-08T22:16:53;44.17;;;21.63;;
37349;SDS011;23231;52.358;4.926;2023-10-08T22:21:56;42.22;;;20.55;;
37349;SDS011;23231;52.358;4.926;2023-10-08T22:27:04;38.75;;;19.98;;
37349;SDS011;23231;52.358;4.926;2023-10-08T22:32:11;46.55;;;21.60;;
37349;SDS011;23231;52.358;4.926;2023-10-08T22:37:20;42.22;;;21.08;;
37349;SDS011;23231;52.358;4.926;2023-10-08T22:42:54;45.85;;;22.98;;
37349;SDS011;23231;52.358;4.926;2023-10-08T22:48:22;49.58;;;22.60;;
37349;SDS011;23231;52.358;4.926;2023-10-08T22:53:52;49.60;;;22.52;;
37349;SDS011;23231;52.358;4.926;2023-10-08T22:59:09;46.47;;;21.25;;
37349;SDS011;23231;52.358;4.926;2023-10-08T23:04:19;40.35;;;20.90;;
37349;SDS011;23231;52.358;4.926;2023-10-08T23:09:46;44.22;;;25.10;;
37349;SDS011;23231;52.358;4.926;2023-10-08T23:14:53;48.95;;;23.30;;
37349;SDS011;23231;52.358;4.926;2023-10-08T23:20:04;45.88;;;23.58;;
37349;SDS011;23231;52.358;4.926;2023-10-08T23:25:13;42.88;;;23.67;;
37349;SDS011;23231;52.358;4.926;2023-10-08T23:30:24;43.72;;;23.40;;
37349;SDS011;23231;52.358;4.926;2023-10-08T23:35:41;50.17;;;25.63;;
37349;SDS011;23231;52.358;4.926;2023-10-08T23:40:44;45.65;;;24.90;;
37349;SDS011;23231;52.358;4.926;2023-10-08T23:45:58;47.05;;;23.95;;
37349;SDS011;23231;52.358;4.926;2023-10-08T23:51:02;47.22;;;26.02;;
37349;SDS011;23231;52.358;4.926;2023-10-08T23:56:24;45.00;;;24.77;;
